Time;durP1;ratioP1;P1;durP2;ratioP2;P2;SDS_P1;SDS_P2;PMS_P1;PMS_P2;Temp;Humidity;BMP_temperature;BMP_pressure;BME280_temperature;BME280_humidity;BME280_pressure;Samples;Min_cycle;Max_cycle;Signal;HPM_P1;HPM_P2
2023/07/10 00:00:54;;;;;;;7.07;3.60;;;;;;;19.36;86.48;101789.31;5034364;28;20033;-70
2023/07/10 00:03:20;;;;;;;7.13;3.30;;;;;;;19.31;88.12;101782.50;5038168;28;20052;-71
2023/07/10 00:05:45;;;;;;;7.30;3.30;;;;;;;19.25;90.69;101786.50;5042869;28;20036;-72
2023/07/10 00:08:10;;;;;;;5.82;3.10;;;;;;;19.14;92.18;101802.59;5039592;28;20179;-71
2023/07/10 00:10:36;;;;;;;7.07;3.60;;;;;;;19.05;94.25;101809.53;5036974;28;20148;-73
2023/07/10 00:13:02;;;;;;;7.03;3.50;;;;;;;19.09;92.18;101812.88;5037883;28;20029;-70
2023/07/10 00:15:27;;;;;;;5.60;3.50;;;;;;;18.98;91.34;101807.38;5041965;28;20124;-71
2023/07/10 00:17:53;;;;;;;5.80;3.70;;;;;;;19.07;92.19;101817.53;5021039;28;20499;-71
2023/07/10 00:20:24;;;;;;;6.72;3.67;;;;;;;19.16;90.12;101817.72;5039149;28;20364;-69
2023/07/10 00:22:49;;;;;;;6.07;3.45;;;;;;;19.09;88.88;101819.13;5041220;28;20037;-69
2023/07/10 00:25:15;;;;;;;5.88;3.00;;;;;;;19.11;90.55;101813.66;5038100;28;20516;-71
2023/07/10 00:27:50;;;;;;;8.07;2.95;;;;;;;19.11;89.59;101810.94;5038770;28;20032;-71
2023/07/10 00:30:17;;;;;;;5.18;2.95;;;;;;;19.09;87.59;101821.84;5034728;28;20025;-72
2023/07/10 00:32:44;;;;;;;8.82;3.28;;;;;;;19.07;87.91;101801.34;5041160;28;20036;-71
2023/07/10 00:35:11;;;;;;;6.05;3.13;;;;;;;19.10;88.06;101810.09;5034084;28;20021;-69
2023/07/10 00:37:36;;;;;;;7.85;3.15;;;;;;;19.05;88.81;101804.13;5042408;28;20025;-69
2023/07/10 00:40:16;;;;;;;5.38;3.10;;;;;;;18.90;92.88;101808.81;5039654;28;20064;-72
2023/07/10 00:42:42;;;;;;;7.18;4.15;;;;;;;18.52;91.45;101802.47;5041856;28;20104;-70
2023/07/10 00:45:12;;;;;;;9.07;4.20;;;;;;;18.16;93.93;101796.81;5039235;28;20124;-71
2023/07/10 00:47:42;;;;;;;8.02;4.00;;;;;;;18.17;94.68;101801.22;5038528;28;20060;-72
2023/07/10 00:50:19;;;;;;;5.93;3.60;;;;;;;18.17;94.70;101797.66;5041362;28;20111;-68
2023/07/10 00:52:47;;;;;;;5.55;3.35;;;;;;;18.19;94.90;101803.84;5034889;28;20155;-69
2023/07/10 00:55:21;;;;;;;6.60;3.72;;;;;;;18.25;94.05;101810.63;5041642;28;20031;-70
2023/07/10 00:57:52;;;;;;;6.43;3.45;;;;;;;18.30;94.94;101809.34;5037974;28;20052;-72
2023/07/10 01:00:22;;;;;;;10.15;3.97;;;;;;;18.31;93.70;101811.09;5036689;28;20028;-69
2023/07/10 01:02:48;;;;;;;5.18;3.20;;;;;;;18.29;94.36;101806.75;5039081;28;20025;-72
2023/07/10 01:05:16;;;;;;;6.13;3.28;;;;;;;18.26;93.65;101804.25;5041092;28;20027;-69
2023/07/10 01:07:56;;;;;;;5.60;3.17;;;;;;;18.32;94.33;101804.72;5036671;28;20029;-70
2023/07/10 01:10:22;;;;;;;5.03;3.30;;;;;;;18.29;91.89;101798.69;5033299;28;20032;-72
2023/07/10 01:12:47;;;;;;;6.22;2.80;;;;;;;18.32;92.75;101804.72;5036040;28;20513;-69
2023/07/10 01:15:14;;;;;;;5.28;2.75;;;;;;;18.37;93.62;101807.97;5036746;28;20510;-71
2023/07/10 01:17:40;;;;;;;6.55;3.00;;;;;;;18.32;92.26;101802.03;5038775;28;20364;-69
2023/07/10 01:20:29;;;;;;;5.85;3.20;;;;;;;18.34;91.80;101810.84;5035220;28;20083;-72
2023/07/10 01:22:55;;;;;;;5.97;3.28;;;;;;;18.35;93.93;101811.72;5036383;28;20029;-71
2023/07/10 01:25:20;;;;;;;5.10;2.75;;;;;;;18.34;92.53;101813.56;5034475;28;20032;-69
2023/07/10 01:27:45;;;;;;;5.70;2.90;;;;;;;18.31;91.84;101810.19;5040694;28;20029;-69
2023/07/10 01:30:26;;;;;;;5.65;2.72;;;;;;;18.38;92.14;101809.69;5037677;28;20033;-72
2023/07/10 01:32:54;;;;;;;5.35;2.60;;;;;;;18.36;90.07;101811.63;5036668;28;20036;-71
2023/07/10 01:35:20;;;;;;;5.18;3.10;;;;;;;18.46;89.84;101811.00;5039200;28;20181;-71
2023/07/10 01:37:45;;;;;;;6.28;2.83;;;;;;;18.44;91.50;101802.16;5043149;28;20021;-69
2023/07/10 01:40:19;;;;;;;3.72;2.50;;;;;;;18.44;90.19;101807.56;5038746;28;20036;-71
2023/07/10 01:42:44;;;;;;;;;;;;;;;18.57;89.62;101808.44;5038074;28;20024;-69
2023/07/10 01:45:13;;;;;;;7.13;3.08;;;;;;;18.39;89.16;101805.16;5036725;28;20619;-72
2023/07/10 01:47:40;;;;;;;5.07;2.50;;;;;;;18.38;88.10;101806.13;5034995;28;20052;-72
2023/07/10 01:50:06;;;;;;;3.58;2.05;;;;;;;18.22;87.95;101800.91;5035204;28;20029;-72
2023/07/10 01:52:32;;;;;;;5.55;2.42;;;;;;;18.32;88.77;101802.03;5037539;28;20175;-71
2023/07/10 01:54:58;;;;;;;4.15;2.28;;;;;;;18.22;89.13;101803.59;5034481;28;20155;-69
2023/07/10 01:57:24;;;;;;;8.70;2.70;;;;;;;18.20;88.69;101810.09;5038778;28;20506;-71
2023/07/10 01:59:50;;;;;;;4.03;2.30;;;;;;;18.25;88.08;101814.19;5035313;28;20044;-72
2023/07/10 02:02:16;;;;;;;3.38;2.33;;;;;;;18.23;89.25;101816.13;5040630;28;20033;-71
2023/07/10 02:04:41;;;;;;;4.68;2.20;;;;;;;18.28;88.54;101815.81;5038313;28;20023;-72
2023/07/10 02:07:06;;;;;;;4.78;2.28;;;;;;;18.34;89.40;101812.69;5036376;28;20025;-72
2023/07/10 02:09:32;;;;;;;3.88;2.15;;;;;;;18.31;88.76;101813.78;5034598;28;20037;-71
2023/07/10 02:11:58;;;;;;;5.05;2.50;;;;;;;18.36;88.09;101811.63;5035086;28;20028;-72
2023/07/10 02:14:24;;;;;;;5.25;2.30;;;;;;;18.32;87.84;101815.50;5035139;28;20025;-70
2023/07/10 02:16:50;;;;;;;4.40;2.38;;;;;;;18.27;88.90;101811.41;5041780;28;20442;-70
2023/07/10 02:19:15;;;;;;;5.25;2.33;;;;;;;18.31;89.42;101819.19;5036085;28;20072;-71
2023/07/10 02:21:41;;;;;;;5.32;2.40;;;;;;;18.28;88.42;101821.22;5046088;28;20451;-70
2023/07/10 02:24:07;;;;;;;5.22;2.40;;;;;;;18.28;88.16;101824.75;5042170;28;20075;-71
2023/07/10 02:26:33;;;;;;;3.60;2.15;;;;;;;18.24;88.90;101825.94;5038599;28;20119;-70
2023/07/10 02:28:59;;;;;;;4.03;2.08;;;;;;;18.22;90.44;101835.94;5035588;28;20136;-72
2023/07/10 02:31:26;;;;;;;9.05;2.10;;;;;;;18.10;90.15;101825.97;5039283;28;20422;-70
2023/07/10 02:33:51;;;;;;;3.88;2.40;;;;;;;18.12;90.92;101835.72;5034818;28;20041;-71
2023/07/10 02:36:17;;;;;;;4.15;2.15;;;;;;;18.07;90.91;101845.06;5037192;28;20556;-70
2023/07/10 02:38:43;;;;;;;3.50;2.13;;;;;;;18.11;91.63;101838.50;5040057;28;20124;-71
2023/07/10 02:41:08;;;;;;;3.80;2.33;;;;;;;18.03;91.42;101835.47;5042549;28;20028;-71
2023/07/10 02:43:34;;;;;;;4.25;2.75;;;;;;;18.04;91.86;101842.56;5035660;28;20097;-70
2023/07/10 02:45:59;;;;;;;4.60;2.78;;;;;;;18.06;90.93;101835.28;5040075;28;20491;-70
2023/07/10 02:48:25;;;;;;;6.22;2.67;;;;;;;18.02;91.83;101834.59;5038403;28;20107;-70
2023/07/10 02:50:50;;;;;;;5.22;2.50;;;;;;;18.02;91.47;101834.59;5038220;28;20125;-72
2023/07/10 02:53:16;;;;;;;4.80;2.63;;;;;;;18.07;91.81;101831.59;5032187;28;20045;-69
2023/07/10 02:55:42;;;;;;;5.47;3.30;;;;;;;17.97;92.40;101838.53;5039685;28;20021;-72
2023/07/10 02:58:08;;;;;;;5.13;3.42;;;;;;;18.00;93.24;101844.59;5032386;28;20029;-72
2023/07/10 03:00:33;;;;;;;6.20;2.92;;;;;;;17.97;95.03;101846.63;5037314;28;20510;-72
2023/07/10 03:02:59;;;;;;;5.43;3.50;;;;;;;17.96;94.64;101847.59;5035658;28;20122;-72
2023/07/10 03:05:25;;;;;;;7.10;3.85;;;;;;;17.94;95.59;101854.94;5035828;28;20555;-69
2023/07/10 03:07:51;;;;;;;8.27;5.75;;;;;;;17.94;96.08;101854.94;5038390;28;20035;-72
2023/07/10 03:10:17;;;;;;;8.15;5.63;;;;;;;18.02;97.53;101856.16;5036497;28;20059;-72
2023/07/10 03:12:43;;;;;;;10.50;6.63;;;;;;;18.02;98.31;101860.69;5036443;28;20025;-70
2023/07/10 03:15:09;;;;;;;10.45;6.97;;;;;;;17.99;97.88;101855.50;5037311;28;20052;-72
2023/07/10 03:17:34;;;;;;;11.35;7.60;;;;;;;17.92;99.45;101858.56;5037995;28;20304;-70
2023/07/10 03:20:00;;;;;;;10.15;7.45;;;;;;;17.91;99.32;101870.31;5036456;28;20036;-71
2023/07/10 03:22:25;;;;;;;9.50;6.85;;;;;;;17.82;99.69;101862.84;5039926;28;20036;-71
2023/07/10 03:24:54;;;;;;;8.68;7.32;;;;;;;17.80;100.00;101869.28;5041477;28;20040;-70
2023/07/10 03:27:20;;;;;;;10.38;7.47;;;;;;;17.78;100.00;101871.22;5033233;28;20509;-70
2023/07/10 03:29:45;;;;;;;12.68;9.05;;;;;;;17.68;100.00;101871.78;5034761;28;20029;-69
2023/07/10 03:32:11;;;;;;;10.05;8.68;;;;;;;17.67;100.00;101875.41;5038115;28;20052;-71
2023/07/10 03:34:36;;;;;;;10.57;9.48;;;;;;;17.67;100.00;101878.13;5037883;28;20036;-71
2023/07/10 03:37:02;;;;;;;10.02;8.57;;;;;;;17.63;100.00;101878.41;5031083;28;20127;-69
2023/07/10 03:39:28;;;;;;;13.18;10.00;;;;;;;17.56;100.00;101875.28;5036554;28;20033;-70
2023/07/10 03:41:53;;;;;;;13.65;9.00;;;;;;;17.55;100.00;101875.34;5034426;28;20025;-69
2023/07/10 03:44:18;;;;;;;15.00;8.77;;;;;;;17.57;100.00;101882.38;5037493;28;20161;-68
2023/07/10 03:46:44;;;;;;;12.98;9.60;;;;;;;17.54;100.00;101881.69;5033777;28;20048;-71
2023/07/10 03:49:09;;;;;;;9.55;7.45;;;;;;;17.43;100.00;101875.19;5036486;28;20150;-69
2023/07/10 03:51:35;;;;;;;10.50;7.80;;;;;;;17.41;100.00;101879.78;5031344;28;20214;-68
2023/07/10 03:54:00;;;;;;;10.70;6.97;;;;;;;17.38;100.00;101882.66;5035759;28;20058;-71
2023/07/10 03:56:25;;;;;;;8.40;6.78;;;;;;;17.34;100.00;101880.25;5036158;28;20040;-68
2023/07/10 03:58:51;;;;;;;8.88;5.93;;;;;;;17.35;99.01;101879.31;5042688;28;20028;-69
2023/07/10 04:01:16;;;;;;;11.63;6.43;;;;;;;17.32;99.59;101888.44;5036707;28;20033;-70
2023/07/10 04:03:43;;;;;;;7.30;5.63;;;;;;;17.24;98.73;101885.38;5039818;28;20028;-69
2023/07/10 04:06:14;;;;;;;6.53;5.47;;;;;;;17.31;99.22;101891.25;5035582;28;20033;-71
2023/07/10 04:08:41;;;;;;;7.20;5.18;;;;;;;17.26;99.25;101894.19;5041663;28;20364;-70
2023/07/10 04:11:10;;;;;;;7.22;4.90;;;;;;;17.20;98.45;101880.28;5040886;28;20437;-70
2023/07/10 04:13:37;;;;;;;8.88;4.88;;;;;;;17.24;97.71;101893.44;5048866;28;20038;-70
2023/07/10 04:16:11;;;;;;;5.47;3.85;;;;;;;17.26;97.03;101910.34;5037598;28;20390;-70
2023/07/10 04:18:38;;;;;;;5.75;4.03;;;;;;;17.23;95.82;101907.00;5035907;28;20086;-70
2023/07/10 04:21:07;;;;;;;6.13;3.85;;;;;;;17.24;95.98;101906.03;5037274;28;20029;-71
2023/07/10 04:23:33;;;;;;;7.13;3.78;;;;;;;17.23;96.03;101897.09;5036621;28;20699;-71
2023/07/10 04:25:58;;;;;;;6.53;4.35;;;;;;;17.26;96.52;101909.47;5032425;28;20059;-70
2023/07/10 04:28:24;;;;;;;6.70;4.97;;;;;;;17.23;96.41;101905.16;5034486;28;20082;-71
2023/07/10 04:30:51;;;;;;;7.45;4.78;;;;;;;17.23;96.96;101899.78;5035318;28;20033;-69
2023/07/10 04:33:18;;;;;;;7.35;5.38;;;;;;;17.23;96.94;101907.84;5041682;28;20457;-70
2023/07/10 04:35:43;;;;;;;7.55;5.63;;;;;;;17.25;98.47;101897.00;5038296;28;20029;-71
2023/07/10 04:38:10;;;;;;;6.90;5.55;;;;;;;17.29;98.71;101903.91;5041463;28;20041;-71
2023/07/10 04:40:35;;;;;;;8.82;6.55;;;;;;;17.25;98.33;101895.16;5036606;28;20339;-71
2023/07/10 04:43:03;;;;;;;9.30;7.18;;;;;;;17.28;98.47;101896.81;5040914;28;20954;-69
2023/07/10 04:45:28;;;;;;;10.18;7.63;;;;;;;17.29;98.53;101894.00;5040743;28;20452;-70
2023/07/10 04:47:54;;;;;;;10.32;8.23;;;;;;;17.38;99.46;101898.81;5038110;28;20167;-70
2023/07/10 04:50:21;;;;;;;11.57;8.10;;;;;;;17.40;98.95;101902.28;5041414;28;20032;-69
2023/07/10 04:52:47;;;;;;;11.13;8.15;;;;;;;17.47;99.19;101904.56;5034889;28;20123;-70
2023/07/10 04:55:12;;;;;;;10.30;7.50;;;;;;;17.57;99.16;101909.28;5041488;28;20486;-70
2023/07/10 04:57:37;;;;;;;11.23;7.95;;;;;;;17.68;98.89;101904.09;5039619;28;20482;-69
2023/07/10 05:00:04;;;;;;;11.88;8.07;;;;;;;17.80;98.65;101912.38;5040723;28;20553;-71
2023/07/10 05:02:30;;;;;;;11.00;7.78;;;;;;;17.90;98.01;101910.81;5040207;28;20033;-69
2023/07/10 05:04:56;;;;;;;11.02;8.05;;;;;;;17.93;96.56;101918.69;5039867;28;20629;-70
2023/07/10 05:07:21;;;;;;;16.40;10.77;;;;;;;17.97;96.00;101927.44;5038524;28;20094;-71
2023/07/10 05:09:47;;;;;;;11.88;7.90;;;;;;;18.06;96.46;101926.88;5035162;28;20501;-70
2023/07/10 05:12:12;;;;;;;10.73;8.38;;;;;;;18.05;96.20;101927.81;5035658;28;20044;-71
2023/07/10 05:14:38;;;;;;;10.95;8.07;;;;;;;17.99;96.54;101926.38;5037170;28;20422;-72
2023/07/10 05:17:03;;;;;;;10.38;8.65;;;;;;;17.94;97.01;101933.91;5039559;28;20037;-69
2023/07/10 05:19:32;;;;;;;11.63;8.63;;;;;;;17.88;96.99;101932.44;5037937;28;20035;-70
2023/07/10 05:21:59;;;;;;;10.90;8.90;;;;;;;17.91;97.87;101942.19;5040175;28;20029;-69
2023/07/10 05:24:24;;;;;;;13.40;8.48;;;;;;;17.98;96.80;101942.66;5040932;28;20495;-70
2023/07/10 05:26:49;;;;;;;9.57;8.50;;;;;;;18.12;95.71;101934.53;5038615;28;20021;-71
2023/07/10 05:29:15;;;;;;;13.00;8.48;;;;;;;18.28;96.24;101932.56;5036894;28;20125;-71
2023/07/10 05:31:41;;;;;;;11.95;8.63;;;;;;;18.42;95.93;101928.94;5039624;28;20020;-71
2023/07/10 05:34:06;;;;;;;11.88;8.50;;;;;;;18.39;93.77;101932.72;5036158;28;20342;-71
2023/07/10 05:36:32;;;;;;;13.85;8.27;;;;;;;18.31;94.31;101940.47;5036185;28;20395;-71
2023/07/10 05:38:57;;;;;;;10.10;8.07;;;;;;;18.32;94.93;101935.94;5034442;28;20398;-71
2023/07/10 05:41:23;;;;;;;9.02;7.57;;;;;;;18.32;93.51;101941.31;5038567;28;20267;-72
2023/07/10 05:43:48;;;;;;;9.77;7.70;;;;;;;18.42;94.24;101937.03;5037063;28;20037;-70
2023/07/10 05:46:15;;;;;;;11.45;8.32;;;;;;;18.44;94.04;101934.25;5040659;28;20052;-69
2023/07/10 05:48:40;;;;;;;8.65;6.65;;;;;;;18.45;93.34;101936.84;5040052;28;20024;-71
2023/07/10 05:51:06;;;;;;;9.35;6.95;;;;;;;18.44;92.34;101935.13;5040175;28;20359;-69
2023/07/10 05:53:33;;;;;;;9.88;6.38;;;;;;;18.55;92.42;101939.78;5046550;28;20024;-72
2023/07/10 05:56:00;;;;;;;11.45;6.90;;;;;;;18.57;91.14;101936.00;5038283;28;20029;-71
2023/07/10 05:58:28;;;;;;;10.75;6.57;;;;;;;18.69;90.83;101934.31;5030628;28;20083;-71
2023/07/10 06:00:56;;;;;;;8.63;5.10;;;;;;;18.71;89.18;101937.81;5034424;28;20028;-71
2023/07/10 06:03:22;;;;;;;9.65;5.65;;;;;;;18.84;88.67;101940.53;5037301;28;20036;-70
2023/07/10 06:06:04;;;;;;;7.18;5.28;;;;;;;19.05;88.49;101925.56;5037478;28;20386;-70
2023/07/10 06:08:31;;;;;;;8.15;5.43;;;;;;;19.23;87.13;101930.63;5033602;28;20031;-71
2023/07/10 06:10:57;;;;;;;8.90;5.53;;;;;;;19.34;86.91;101936.16;5032195;28;20039;-68
2023/07/10 06:13:23;;;;;;;8.10;5.50;;;;;;;19.59;85.46;101938.84;5036046;28;20035;-72
2023/07/10 06:15:51;;;;;;;7.97;5.10;;;;;;;19.78;84.17;101933.03;5029473;28;20021;-72
2023/07/10 06:18:17;;;;;;;7.80;5.43;;;;;;;19.86;81.68;101944.13;5033096;28;20033;-70
2023/07/10 06:20:43;;;;;;;7.93;4.80;;;;;;;20.05;82.36;101946.34;5038344;28;20017;-68
2023/07/10 06:23:09;;;;;;;6.63;4.57;;;;;;;20.21;80.76;101946.06;5029111;28;20377;-71
2023/07/10 06:25:34;;;;;;;7.00;4.60;;;;;;;20.38;79.74;101956.50;5032332;28;20037;-70
2023/07/10 06:28:00;;;;;;;6.78;4.72;;;;;;;20.54;78.86;101949.97;5035600;28;20029;-69
2023/07/10 06:30:25;;;;;;;8.43;4.63;;;;;;;20.64;77.83;101956.41;5038965;28;20036;-69
2023/07/10 06:32:51;;;;;;;6.13;4.35;;;;;;;20.73;76.17;101961.13;5031998;28;20148;-71
2023/07/10 06:35:17;;;;;;;7.65;4.88;;;;;;;20.69;74.06;101954.22;5031595;28;20028;-68
2023/07/10 06:37:44;;;;;;;6.53;3.60;;;;;;;20.85;73.20;101960.19;5036902;28;20501;-69
2023/07/10 06:40:12;;;;;;;5.00;3.70;;;;;;;21.10;74.72;101958.28;5037958;28;20170;-72
2023/07/10 06:42:39;;;;;;;10.85;4.25;;;;;;;21.18;71.82;101953.13;5037293;28;20067;-71
2023/07/10 06:45:05;;;;;;;7.45;3.50;;;;;;;21.32;70.39;101961.09;5032421;28;20061;-71
2023/07/10 06:47:32;;;;;;;8.15;3.63;;;;;;;21.36;69.40;101968.00;5038515;28;20095;-73
2023/07/10 06:49:58;;;;;;;6.18;3.20;;;;;;;21.45;68.80;101962.84;5037306;28;20037;-70
2023/07/10 06:52:24;;;;;;;6.35;2.67;;;;;;;21.46;67.95;101968.13;5033945;28;20029;-71
2023/07/10 06:54:49;;;;;;;5.55;2.45;;;;;;;21.53;68.11;101963.94;5037951;28;20039;-73
2023/07/10 06:57:14;;;;;;;6.97;2.80;;;;;;;21.69;68.61;101968.97;5039404;28;20021;-70
2023/07/10 06:59:40;;;;;;;5.80;3.53;;;;;;;21.87;66.45;101967.53;5029911;28;20578;-69
2023/07/10 07:02:06;;;;;;;10.48;5.35;;;;;;;21.95;66.20;101961.47;5039017;28;20052;-71
2023/07/10 07:04:31;;;;;;;6.15;3.10;;;;;;;22.06;65.83;101964.16;5034865;28;20029;-74
2023/07/10 07:06:57;;;;;;;6.15;2.60;;;;;;;22.31;64.65;101956.75;5038096;28;20044;-75
2023/07/10 07:09:22;;;;;;;5.10;2.38;;;;;;;22.33;62.71;101957.50;5036465;28;20025;-73
2023/07/10 07:11:48;;;;;;;5.80;2.28;;;;;;;22.42;60.88;101970.28;5039768;28;20550;-72
2023/07/10 07:14:13;;;;;;;5.57;2.30;;;;;;;22.36;59.61;101968.06;5035151;28;20118;-71
2023/07/10 07:16:38;;;;;;;6.20;2.20;;;;;;;22.38;60.17;101966.97;5039487;28;20123;-76
2023/07/10 07:19:04;;;;;;;5.28;2.42;;;;;;;22.65;61.21;101962.91;5040762;28;20562;-71
2023/07/10 07:21:29;;;;;;;4.38;2.30;;;;;;;22.93;60.20;101966.06;5035627;28;20576;-70
2023/07/10 07:23:54;;;;;;;5.70;2.20;;;;;;;22.90;58.56;101966.28;5037723;28;20049;-73
2023/07/10 07:26:20;;;;;;;3.53;1.73;;;;;;;23.11;57.61;101967.16;5034203;28;20024;-76
2023/07/10 07:28:47;;;;;;;5.70;1.90;;;;;;;23.06;56.96;101975.72;5034995;28;20032;-73
2023/07/10 07:31:12;;;;;;;6.45;2.75;;;;;;;23.10;57.58;101970.88;5043998;28;20037;-74
2023/07/10 07:33:38;;;;;;;5.65;2.35;;;;;;;23.29;56.16;101971.03;5045830;28;20541;-73
2023/07/10 07:36:04;;;;;;;5.03;2.00;;;;;;;23.64;56.13;101980.66;5039330;28;20024;-76
2023/07/10 07:38:29;;;;;;;7.82;2.33;;;;;;;23.97;54.40;101973.25;5041026;28;20032;-71
2023/07/10 07:40:58;;;;;;;4.25;2.20;;;;;;;24.36;53.70;101977.75;5043958;28;20021;-74
2023/07/10 07:43:24;;;;;;;5.63;2.13;;;;;;;24.73;52.00;101985.28;5029466;28;20033;-72
2023/07/10 07:45:54;;;;;;;5.22;1.95;;;;;;;25.32;51.15;101977.97;5038034;28;20090;-72
2023/07/10 07:48:21;;;;;;;4.15;2.20;;;;;;;25.92;51.35;101988.53;5041476;28;20033;-75
2023/07/10 07:50:55;;;;;;;7.10;2.30;;;;;;;26.44;51.75;101986.13;5042507;28;20254;-70
2023/07/10 07:53:21;;;;;;;5.32;2.30;;;;;;;26.85;48.48;101984.69;5060572;28;20135;-75
2023/07/10 07:55:50;;;;;;;6.35;2.50;;;;;;;26.94;47.78;101982.88;5044970;28;20116;-71
2023/07/10 07:58:15;;;;;;;6.35;2.58;;;;;;;26.95;47.25;101981.84;5040711;28;20067;-75
2023/07/10 08:00:41;;;;;;;7.55;2.40;;;;;;;27.41;46.18;101969.75;5040629;28;20029;-70
2023/07/10 08:03:09;;;;;;;5.63;2.10;;;;;;;27.86;45.38;101976.88;5042477;28;20033;-70
2023/07/10 08:05:34;;;;;;;6.28;2.20;;;;;;;28.51;43.74;101976.28;5044511;28;20020;-74
2023/07/10 08:08:00;;;;;;;4.88;1.95;;;;;;;28.80;42.65;101962.06;5041406;28;20028;-70
2023/07/10 08:10:25;;;;;;;6.45;2.47;;;;;;;29.16;42.18;101973.59;5041242;28;20384;-72
2023/07/10 08:12:51;;;;;;;7.35;2.70;;;;;;;28.86;39.98;101966.88;5037163;28;20037;-74
2023/07/10 08:15:16;;;;;;;5.63;2.00;;;;;;;28.88;40.55;101972.19;5043301;28;20407;-70
2023/07/10 08:17:41;;;;;;;7.38;2.35;;;;;;;28.88;39.54;101972.19;5040847;28;20300;-75
2023/07/10 08:20:07;;;;;;;5.32;2.20;;;;;;;29.02;39.52;101975.16;5038744;28;20048;-76
2023/07/10 08:22:33;;;;;;;6.32;2.28;;;;;;;29.41;38.32;101979.03;5041872;28;20029;-71
2023/07/10 08:24:58;;;;;;;4.68;1.63;;;;;;;29.67;37.93;101971.44;5037611;28;20043;-72
2023/07/10 08:27:24;;;;;;;4.40;1.85;;;;;;;29.96;37.07;101979.06;5040264;28;20495;-71
2023/07/10 08:29:49;;;;;;;5.85;1.75;;;;;;;30.10;35.95;101980.22;5039624;28;20105;-70
2023/07/10 08:32:15;;;;;;;5.15;1.80;;;;;;;30.84;36.50;101975.16;5046791;28;20387;-75
2023/07/10 08:34:40;;;;;;;4.78;2.05;;;;;;;31.05;34.58;101979.94;5043346;28;20402;-72
2023/07/10 08:37:06;;;;;;;4.32;1.80;;;;;;;31.30;34.66;101977.00;5038614;28;20028;-75
2023/07/10 08:39:31;;;;;;;4.95;1.80;;;;;;;31.62;34.29;101967.56;5039956;28;20013;-74
2023/07/10 08:42:02;;;;;;;6.07;2.50;;;;;;;32.21;32.30;101968.34;5036636;28;20027;-72
2023/07/10 08:44:37;;;;;;;27.23;4.03;;;;;;;32.37;33.23;101977.44;5039595;28;20024;-73
2023/07/10 08:47:14;;;;;;;7.20;1.85;;;;;;;32.57;33.38;101975.78;5037914;28;20130;-75
2023/07/10 08:49:45;;;;;;;11.77;2.45;;;;;;;32.73;31.72;101972.78;5038329;28;20020;-75
2023/07/10 08:52:13;;;;;;;6.13;2.20;;;;;;;32.80;31.01;101969.22;5041454;28;20029;-71
2023/07/10 08:54:39;;;;;;;4.32;1.80;;;;;;;32.95;30.71;101973.66;5038220;28;20055;-71
2023/07/10 08:57:28;;;;;;;4.18;1.70;;;;;;;32.93;30.99;101977.63;5036573;28;20032;-74
2023/07/10 09:00:10;;;;;;;6.10;1.73;;;;;;;32.69;31.35;101968.72;5036492;28;20041;-71
2023/07/10 09:02:42;;;;;;;5.80;1.80;;;;;;;33.08;30.20;101970.16;5037864;28;20025;-74
2023/07/10 09:05:14;;;;;;;6.43;1.85;;;;;;;33.00;30.31;101974.97;5039304;28;20362;-73
2023/07/10 09:07:43;;;;;;;5.72;1.85;;;;;;;33.71;29.25;101978.47;5039900;28;20166;-73
2023/07/10 09:10:18;;;;;;;5.65;1.60;;;;;;;33.60;29.80;101984.53;5041462;28;20598;-75
2023/07/10 09:12:53;;;;;;;5.95;1.77;;;;;;;33.67;29.82;101986.28;5040950;28;20037;-75
2023/07/10 09:15:25;;;;;;;5.13;1.63;;;;;;;33.82;29.56;101983.41;5043292;28;20042;-70
2023/07/10 09:18:12;;;;;;;4.63;1.90;;;;;;;34.31;29.34;101978.75;5038406;28;20033;-73
2023/07/10 09:20:37;;;;;;;4.72;1.65;;;;;;;35.13;27.71;101986.81;5036459;28;20349;-73
2023/07/10 09:23:17;;;;;;;9.60;2.33;;;;;;;34.89;27.76;101984.63;5034378;28;20036;-72
2023/07/10 09:25:42;;;;;;;5.60;2.17;;;;;;;34.89;26.62;101981.88;5036401;28;20112;-70
2023/07/10 09:28:09;;;;;;;4.97;2.17;;;;;;;35.35;26.87;101975.50;5036064;28;20154;-73
2023/07/10 09:30:56;;;;;;;3.38;1.50;;;;;;;35.64;25.80;101985.28;5040405;28;20064;-72
2023/07/10 09:33:22;;;;;;;5.85;1.85;;;;;;;35.18;26.28;101991.69;5041378;28;20048;-73
2023/07/10 09:35:51;;;;;;;5.38;1.95;;;;;;;35.74;25.91;101971.81;5042968;28;20499;-71
2023/07/10 09:38:18;;;;;;;4.40;1.60;;;;;;;36.37;25.58;101969.22;5036483;28;20135;-73
2023/07/10 09:40:50;;;;;;;5.68;1.80;;;;;;;36.80;24.81;101970.47;5041853;28;20515;-73
2023/07/10 09:43:24;;;;;;;5.28;1.50;;;;;;;37.18;24.97;101980.63;5035619;28;20479;-71
2023/07/10 09:45:51;;;;;;;2.92;1.42;;;;;;;37.70;23.95;101982.03;5039974;28;20436;-74
2023/07/10 09:48:26;;;;;;;5.53;1.60;;;;;;;37.71;23.64;101977.31;5045533;28;20518;-71
2023/07/10 09:50:53;;;;;;;3.05;1.35;;;;;;;37.52;22.93;101979.25;5040626;28;20455;-76
2023/07/10 09:53:32;;;;;;;5.53;1.45;;;;;;;38.07;24.40;101969.00;5043089;28;20025;-73
2023/07/10 09:55:58;;;;;;;3.45;1.42;;;;;;;38.04;21.34;101988.94;5041334;28;20433;-72
2023/07/10 09:58:23;;;;;;;4.60;1.30;;;;;;;37.92;21.47;101987.13;5045499;28;20027;-76
2023/07/10 10:00:49;;;;;;;3.08;1.25;;;;;;;38.09;20.81;101982.66;5041940;28;20036;-71
2023/07/10 10:03:23;;;;;;;3.03;1.52;;;;;;;38.00;21.39;101992.38;5040300;28;20040;-73
2023/07/10 10:05:56;;;;;;;4.85;1.70;;;;;;;38.22;22.53;101985.25;5034242;28;20572;-70
2023/07/10 10:08:31;;;;;;;4.93;1.60;;;;;;;38.71;22.09;101985.22;5038727;28;20029;-73
2023/07/10 10:11:01;;;;;;;4.57;1.73;;;;;;;38.86;21.32;101980.91;5037246;28;20033;-74
2023/07/10 10:13:29;;;;;;;6.88;1.63;;;;;;;38.93;20.43;101978.03;5035625;28;20028;-71
2023/07/10 10:16:06;;;;;;;3.50;1.50;;;;;;;39.33;22.29;101969.84;5040836;28;20021;-72
2023/07/10 10:18:55;;;;;;;5.95;1.77;;;;;;;38.84;21.55;101976.69;5040664;28;20032;-74
2023/07/10 10:21:21;;;;;;;5.97;1.60;;;;;;;38.43;21.13;101977.53;5041362;28;20070;-74
2023/07/10 10:23:50;;;;;;;6.03;1.45;;;;;;;38.08;21.82;101976.25;5039404;28;20044;-70
2023/07/10 10:26:51;;;;;;;4.32;1.80;;;;;;;37.11;23.06;101977.91;5039267;28;20029;-75
2023/07/10 10:29:34;;;;;;;3.33;1.30;;;;;;;36.91;22.93;101972.47;5038595;28;20036;-74
2023/07/10 10:32:30;;;;;;;3.63;1.52;;;;;;;37.63;22.03;101971.00;5042430;28;20219;-71
2023/07/10 10:35:01;;;;;;;3.70;1.67;;;;;;;38.66;21.58;101962.81;5043314;28;20125;-75
2023/07/10 10:38:00;;;;;;;4.17;1.80;;;;;;;39.48;20.87;101968.50;5047955;28;20340;-74
2023/07/10 10:40:44;;;;;;;3.05;1.52;;;;;;;39.71;20.85;101976.84;5031375;28;20020;-72
2023/07/10 10:43:24;;;;;;;4.32;1.60;;;;;;;39.63;20.05;101977.19;5039319;28;20729;-74
2023/07/10 10:45:59;;;;;;;4.45;1.55;;;;;;;39.89;19.97;101967.50;5040875;28;20100;-75
2023/07/10 10:48:44;;;;;;;8.50;2.10;;;;;;;40.26;20.47;101956.84;5040776;28;20087;-74
2023/07/10 10:51:29;;;;;;;7.65;1.80;;;;;;;40.27;21.36;101955.75;5035070;28;20025;-74
2023/07/10 10:53:54;;;;;;;4.68;1.98;;;;;;;40.58;19.83;101968.31;5040552;28;20035;-72
2023/07/10 10:56:32;;;;;;;5.15;1.58;;;;;;;41.28;19.00;101978.16;5036777;28;20423;-74
2023/07/10 10:59:25;;;;;;;4.20;1.95;;;;;;;41.96;19.18;101961.25;5037957;28;20490;-73
2023/07/10 11:02:19;;;;;;;5.20;1.63;;;;;;;42.68;19.53;101972.13;5031058;28;20071;-74
2023/07/10 11:05:08;;;;;;;3.88;1.90;;;;;;;41.85;19.29;101984.59;5039542;28;20098;-75
2023/07/10 11:07:34;;;;;;;5.60;1.92;;;;;;;41.39;18.54;101975.53;5044001;28;20020;-75
2023/07/10 11:10:04;;;;;;;4.50;1.60;;;;;;;41.51;19.30;101984.66;5041858;28;20059;-74
2023/07/10 11:12:32;;;;;;;5.40;1.80;;;;;;;41.67;19.61;101980.13;5042134;28;20025;-73
2023/07/10 11:15:16;;;;;;;3.38;1.50;;;;;;;42.10;19.75;101992.44;5044675;28;20068;-71
2023/07/10 11:17:44;;;;;;;3.72;1.70;;;;;;;40.88;19.34;101985.84;5047454;28;20020;-76
2023/07/10 11:20:14;;;;;;;5.13;1.63;;;;;;;38.57;22.00;101981.78;5043319;28;20170;-71
2023/07/10 11:22:50;;;;;;;5.05;1.67;;;;;;;36.40;24.22;101974.31;5044149;28;20155;-70
2023/07/10 11:25:34;;;;;;;5.70;2.20;;;;;;;35.07;26.22;101975.72;5035813;28;20025;-70
2023/07/10 11:28:20;;;;;;;4.57;1.48;;;;;;;33.20;27.63;101968.53;5047753;28;20435;-71
2023/07/10 11:30:46;;;;;;;2.88;1.52;;;;;;;31.97;29.23;101968.69;5040987;28;20397;-73